Time;durP1;ratioP1;P1;durP2;ratioP2;P2;SDS_P1;SDS_P2;PMS_P1;PMS_P2;Temp;Humidity;BMP_temperature;BMP_pressure;BME280_temperature;BME280_humidity;BME280_pressure;Samples;Min_cycle;Max_cycle;Signal;HPM_P1;HPM_P2
2021/07/17 00:01:38;;;;;;;12.98;5.43;;;;;;;;;;5062720;28;20075;-69
2021/07/17 00:04:05;;;;;;;13.57;5.65;;;;;;;;;;5059756;28;20021;-69
2021/07/17 00:06:31;;;;;;;10.50;5.35;;;;;;;;;;5055909;28;20545;-70
2021/07/17 00:08:57;;;;;;;12.15;5.40;;;;;;;;;;5059856;28;20108;-70
2021/07/17 00:11:23;;;;;;;11.60;5.70;;;;;;;;;;5061142;28;20020;-70
2021/07/17 00:13:50;;;;;;;11.38;5.10;;;;;;;;;;5059843;28;20041;-69
2021/07/17 00:16:25;;;;;;;14.70;5.50;;;;;;;;;;5059306;28;20477;-69
2021/07/17 00:18:51;;;;;;;10.10;5.40;;;;;;;;;;5057720;28;20092;-68
2021/07/17 00:21:18;;;;;;;12.52;5.65;;;;;;;;;;5060868;28;20053;-69
2021/07/17 00:23:44;;;;;;;9.48;5.65;;;;;;;;;;5065137;28;20059;-69
2021/07/17 00:26:10;;;;;;;11.23;5.82;;;;;;;;;;5059141;28;20041;-69
2021/07/17 00:28:36;;;;;;;10.98;5.72;;;;;;;;;;5058109;28;20032;-68
2021/07/17 00:31:02;;;;;;;12.52;6.20;;;;;;;;;;5062581;28;20021;-69
2021/07/17 00:33:28;;;;;;;10.45;5.35;;;;;;;;;;5048876;28;20546;-69
2021/07/17 00:35:54;;;;;;;11.52;6.15;;;;;;;;;;5060475;28;20116;-70
2021/07/17 00:38:20;;;;;;;10.23;5.78;;;;;;;;;;5058037;28;20032;-69
2021/07/17 00:40:46;;;;;;;10.30;5.90;;;;;;;;;;5059927;28;20513;-68
2021/07/17 00:43:12;;;;;;;10.15;5.88;;;;;;;;;;5062382;28;20027;-68
2021/07/17 00:45:38;;;;;;;12.45;5.45;;;;;;;;;;5061773;28;20051;-67
2021/07/17 00:48:05;;;;;;;10.02;6.03;;;;;;;;;;5057767;28;20028;-70
2021/07/17 00:50:31;;;;;;;14.77;6.70;;;;;;;;;;5060516;28;20028;-69
2021/07/17 00:52:57;;;;;;;11.63;5.68;;;;;;;;;;5059162;28;20032;-68
2021/07/17 00:55:26;;;;;;;8.98;5.90;;;;;;;;;;5062279;28;20024;-66
2021/07/17 00:57:52;;;;;;;11.00;5.88;;;;;;;;;;5059855;28;20054;-68
2021/07/17 01:00:19;;;;;;;14.15;6.05;;;;;;;;;;5059474;28;20009;-68
2021/07/17 01:03:05;;;;;;;8.77;5.72;;;;;;;;;;5060412;28;20097;-70
2021/07/17 01:05:31;;;;;;;15.43;6.68;;;;;;;;;;5059629;28;20489;-70
2021/07/17 01:07:58;;;;;;;9.15;5.47;;;;;;;;;;5058049;28;20037;-68
2021/07/17 01:10:24;;;;;;;11.65;5.93;;;;;;;;;;5059019;28;20150;-67
2021/07/17 01:12:51;;;;;;;11.13;5.70;;;;;;;;;;5063127;28;20044;-69
2021/07/17 01:15:17;;;;;;;12.25;5.93;;;;;;;;;;5063071;28;20034;-70
2021/07/17 01:17:44;;;;;;;14.20;6.45;;;;;;;;;;5065343;28;20018;-70
2021/07/17 01:20:11;;;;;;;15.82;6.13;;;;;;;;;;5063625;28;20039;-70
2021/07/17 01:22:38;;;;;;;10.27;5.53;;;;;;;;;;5063337;28;20016;-68
2021/07/17 01:25:14;;;;;;;13.48;6.10;;;;;;;;;;5062549;28;20042;-68
2021/07/17 01:27:41;;;;;;;10.90;5.70;;;;;;;;;;5060756;28;20029;-70
2021/07/17 01:30:08;;;;;;;12.93;5.70;;;;;;;;;;5061755;28;20156;-69
2021/07/17 01:32:34;;;;;;;9.30;5.80;;;;;;;;;;5063343;28;20025;-70
2021/07/17 01:35:00;;;;;;;11.07;6.43;;;;;;;;;;5061906;28;20035;-69
2021/07/17 01:37:26;;;;;;;11.30;5.47;;;;;;;;;;5065436;28;20017;-69
2021/07/17 01:39:52;;;;;;;7.93;5.18;;;;;;;;;;5060360;28;20111;-69
2021/07/17 01:42:18;;;;;;;11.40;5.60;;;;;;;;;;5062578;28;20032;-69
2021/07/17 01:44:45;;;;;;;12.25;5.18;;;;;;;;;;5061486;28;20017;-67
2021/07/17 01:47:12;;;;;;;12.02;5.78;;;;;;;;;;5064288;28;20515;-70
2021/07/17 01:49:39;;;;;;;9.40;4.65;;;;;;;;;;5063271;28;20093;-71
2021/07/17 01:52:05;;;;;;;10.35;4.75;;;;;;;;;;5060028;28;20036;-69
2021/07/17 01:54:32;;;;;;;13.40;5.43;;;;;;;;;;5051362;28;20021;-70
2021/07/17 01:56:58;;;;;;;13.23;5.90;;;;;;;;;;5062653;28;20500;-70
2021/07/17 01:59:24;;;;;;;12.68;5.13;;;;;;;;;;5062926;28;20095;-68
2021/07/17 02:01:50;;;;;;;11.40;5.63;;;;;;;;;;5062979;28;20105;-70
2021/07/17 02:04:16;;;;;;;11.13;5.50;;;;;;;;;;5061950;28;20017;-69
2021/07/17 02:06:42;;;;;;;9.25;4.63;;;;;;;;;;5064168;28;20033;-69
2021/07/17 02:09:08;;;;;;;13.10;5.18;;;;;;;;;;5065802;28;20016;-70
2021/07/17 02:11:34;;;;;;;10.80;4.55;;;;;;;;;;5059824;28;20086;-70
2021/07/17 02:14:00;;;;;;;10.55;4.85;;;;;;;;;;5062776;28;20060;-70
2021/07/17 02:16:26;;;;;;;13.63;5.35;;;;;;;;;;5063738;28;20079;-70
2021/07/17 02:18:53;;;;;;;9.65;4.20;;;;;;;;;;5061692;28;20046;-71
2021/07/17 02:21:20;;;;;;;9.32;4.47;;;;;;;;;;5064581;28;20024;-68
2021/07/17 02:23:47;;;;;;;10.32;4.15;;;;;;;;;;5061747;28;20411;-68
2021/07/17 02:26:13;;;;;;;10.32;4.35;;;;;;;;;;5063592;28;20037;-70
2021/07/17 02:28:40;;;;;;;12.50;4.75;;;;;;;;;;5060960;28;20025;-70
2021/07/17 02:31:07;;;;;;;15.63;5.05;;;;;;;;;;5061868;28;20029;-69
2021/07/17 02:33:33;;;;;;;15.43;4.97;;;;;;;;;;5063148;28;20191;-68
2021/07/17 02:35:59;;;;;;;9.30;3.75;;;;;;;;;;5064712;28;20511;-70
2021/07/17 02:38:25;;;;;;;9.90;3.55;;;;;;;;;;5062558;28;20112;-68
2021/07/17 02:40:51;;;;;;;10.80;3.58;;;;;;;;;;5063974;28;20050;-67
2021/07/17 02:43:19;;;;;;;10.45;3.53;;;;;;;;;;5061551;28;20103;-70
2021/07/17 02:45:45;;;;;;;8.27;3.60;;;;;;;;;;5060463;28;20028;-69
2021/07/17 02:48:11;;;;;;;11.35;4.05;;;;;;;;;;5063607;28;20130;-70
2021/07/17 02:50:37;;;;;;;7.50;3.42;;;;;;;;;;5064195;28;20036;-70
2021/07/17 02:53:04;;;;;;;8.68;3.40;;;;;;;;;;5053276;28;20236;-71
2021/07/17 02:55:30;;;;;;;17.20;4.22;;;;;;;;;;5063592;28;20120;-69
2021/07/17 02:57:56;;;;;;;16.60;4.25;;;;;;;;;;5063392;28;20028;-68
2021/07/17 03:00:22;;;;;;;13.40;3.75;;;;;;;;;;5067081;28;20090;-68
2021/07/17 03:02:48;;;;;;;9.25;3.05;;;;;;;;;;5054159;28;20023;-66
2021/07/17 03:05:14;;;;;;;9.00;3.63;;;;;;;;;;5059804;28;20099;-70
2021/07/17 03:07:40;;;;;;;10.63;4.10;;;;;;;;;;5051564;28;20028;-67
2021/07/17 03:10:06;;;;;;;8.88;3.35;;;;;;;;;;5051333;28;20028;-69
2021/07/17 03:12:32;;;;;;;11.00;3.33;;;;;;;;;;5051324;28;20481;-70
2021/07/17 03:14:58;;;;;;;6.53;2.85;;;;;;;;;;5052092;28;20035;-68
2021/07/17 03:17:24;;;;;;;6.85;3.05;;;;;;;;;;5051810;28;20021;-69
2021/07/17 03:19:50;;;;;;;5.93;2.60;;;;;;;;;;5052071;28;20115;-69
2021/07/17 03:22:16;;;;;;;7.22;2.90;;;;;;;;;;5052086;28;20025;-71
2021/07/17 03:24:42;;;;;;;21.52;3.20;;;;;;;;;;5051820;28;20108;-68
2021/07/17 03:27:09;;;;;;;5.15;2.38;;;;;;;;;;5050362;28;20024;-69
2021/07/17 03:29:35;;;;;;;36.63;3.22;;;;;;;;;;5051876;28;20025;-67
2021/07/17 03:32:01;;;;;;;42.30;3.83;;;;;;;;;;5054350;28;20057;-68
2021/07/17 03:34:27;;;;;;;12.90;2.80;;;;;;;;;;5070914;28;20382;-68
2021/07/17 03:36:53;;;;;;;8.65;2.92;;;;;;;;;;5053788;28;20036;-69
2021/07/17 03:39:19;;;;;;;9.13;2.92;;;;;;;;;;5052498;28;20137;-69
2021/07/17 03:41:45;;;;;;;11.27;3.08;;;;;;;;;;5053199;28;20175;-69
2021/07/17 03:44:11;;;;;;;8.05;3.15;;;;;;;;;;5070753;28;20179;-70
2021/07/17 03:46:37;;;;;;;9.73;3.38;;;;;;;;;;5070794;28;20032;-69
2021/07/17 03:49:04;;;;;;;7.07;2.97;;;;;;;;;;5070633;28;20035;-69
2021/07/17 03:51:30;;;;;;;8.18;2.78;;;;;;;;;;5052548;28;20020;-67
2021/07/17 03:53:56;;;;;;;8.93;3.15;;;;;;;;;;5058577;28;20021;-70
2021/07/17 03:56:22;;;;;;;7.43;3.00;;;;;;;;;;5051166;28;20082;-68
2021/07/17 03:58:48;;;;;;;7.93;3.65;;;;;;;;;;5051488;28;20021;-69
2021/07/17 04:01:14;;;;;;;8.23;3.15;;;;;;;;;;5049987;28;20017;-69
2021/07/17 04:03:40;;;;;;;7.32;3.45;;;;;;;;;;5049939;28;20021;-69
2021/07/17 04:06:06;;;;;;;6.82;3.35;;;;;;;;;;5050009;28;20709;-69
2021/07/17 04:08:32;;;;;;;7.88;3.58;;;;;;;;;;5051337;28;20753;-70
2021/07/17 04:10:59;;;;;;;11.15;3.92;;;;;;;;;;5049986;28;20083;-69
2021/07/17 04:13:25;;;;;;;11.18;3.95;;;;;;;;;;5050930;28;20441;-69
2021/07/17 04:15:53;;;;;;;8.50;4.03;;;;;;;;;;5050973;28;20196;-69
2021/07/17 04:18:19;;;;;;;10.65;4.00;;;;;;;;;;5049305;28;20075;-67
2021/07/17 04:20:46;;;;;;;8.65;4.07;;;;;;;;;;5050326;28;20027;-69
2021/07/17 04:23:12;;;;;;;8.27;3.90;;;;;;;;;;5050283;28;20028;-70
2021/07/17 04:25:38;;;;;;;10.43;3.88;;;;;;;;;;5048897;28;20071;-69
2021/07/17 04:28:04;;;;;;;10.10;3.88;;;;;;;;;;5061196;28;20048;-68
2021/07/17 04:30:30;;;;;;;9.95;3.90;;;;;;;;;;5070206;28;20104;-68
2021/07/17 04:32:56;;;;;;;8.57;3.80;;;;;;;;;;5070205;28;20024;-67
2021/07/17 04:35:22;;;;;;;11.18;3.60;;;;;;;;;;5070348;28;20445;-69
2021/07/17 04:37:48;;;;;;;9.85;3.92;;;;;;;;;;5069995;28;20028;-68
2021/07/17 04:40:16;;;;;;;9.77;4.63;;;;;;;;;;5070131;28;20021;-69
2021/07/17 04:42:42;;;;;;;10.80;4.05;;;;;;;;;;5052267;28;20044;-68
2021/07/17 04:45:08;;;;;;;8.48;4.28;;;;;;;;;;5051972;28;20048;-69
2021/07/17 04:47:35;;;;;;;10.32;4.55;;;;;;;;;;5056766;28;20119;-70
2021/07/17 04:50:02;;;;;;;8.57;3.58;;;;;;;;;;5074716;28;20021;-67
2021/07/17 04:52:29;;;;;;;8.02;3.88;;;;;;;;;;5074411;28;20024;-69
2021/07/17 04:54:55;;;;;;;9.82;4.10;;;;;;;;;;5053483;28;20118;-68
2021/07/17 04:57:21;;;;;;;10.70;4.10;;;;;;;;;;5053169;28;20025;-69
2021/07/17 04:59:47;;;;;;;8.32;4.07;;;;;;;;;;5054576;28;20100;-68
2021/07/17 05:02:13;;;;;;;9.55;3.60;;;;;;;;;;5054427;28;20021;-69
2021/07/17 05:04:39;;;;;;;10.98;3.92;;;;;;;;;;5052988;28;20115;-70
2021/07/17 05:07:05;;;;;;;7.20;3.70;;;;;;;;;;5054520;28;20087;-69
2021/07/17 05:09:31;;;;;;;12.68;4.15;;;;;;;;;;5054563;28;20021;-69
2021/07/17 05:11:58;;;;;;;8.90;3.72;;;;;;;;;;5053366;28;20055;-68
2021/07/17 05:14:24;;;;;;;8.15;4.22;;;;;;;;;;5053899;28;20099;-70
2021/07/17 05:16:50;;;;;;;9.88;4.47;;;;;;;;;;5054485;28;20021;-69
2021/07/17 05:19:18;;;;;;;8.60;3.83;;;;;;;;;;5054253;28;20367;-68
2021/07/17 05:21:44;;;;;;;8.98;4.75;;;;;;;;;;5054323;28;20013;-69
2021/07/17 05:24:10;;;;;;;11.05;3.85;;;;;;;;;;5054374;28;20060;-69
2021/07/17 05:26:36;;;;;;;7.82;3.97;;;;;;;;;;5054097;28;20037;-68
2021/07/17 05:29:02;;;;;;;8.15;4.15;;;;;;;;;;5073213;28;20025;-69
2021/07/17 05:31:28;;;;;;;10.13;4.75;;;;;;;;;;5072779;28;20035;-69
2021/07/17 05:33:54;;;;;;;10.35;4.60;;;;;;;;;;5073808;28;20095;-69
2021/07/17 05:36:20;;;;;;;10.63;4.63;;;;;;;;;;5073753;28;20035;-69
2021/07/17 05:38:47;;;;;;;11.15;4.63;;;;;;;;;;5074020;28;20016;-69
2021/07/17 05:41:13;;;;;;;6.47;4.15;;;;;;;;;;5074173;28;20457;-67
2021/07/17 05:43:39;;;;;;;13.05;4.90;;;;;;;;;;5072415;28;20021;-69
2021/07/17 05:46:05;;;;;;;8.60;4.38;;;;;;;;;;5073797;28;20036;-68
2021/07/17 05:48:31;;;;;;;10.65;5.18;;;;;;;;;;5073757;28;20020;-69
2021/07/17 05:50:57;;;;;;;11.68;4.72;;;;;;;;;;5072118;28;20076;-68
2021/07/17 05:53:23;;;;;;;8.02;4.50;;;;;;;;;;5073325;28;20021;-67
2021/07/17 05:55:49;;;;;;;11.82;4.88;;;;;;;;;;5055253;28;20025;-69
2021/07/17 05:58:15;;;;;;;8.88;5.03;;;;;;;;;;5073291;28;20032;-67
2021/07/17 06:00:42;;;;;;;11.68;4.00;;;;;;;;;;5073924;28;20028;-67
2021/07/17 06:03:09;;;;;;;10.68;4.60;;;;;;;;;;5074034;28;20074;-67
2021/07/17 06:05:36;;;;;;;10.02;4.50;;;;;;;;;;5073556;28;20033;-67
2021/07/17 06:08:02;;;;;;;9.40;4.82;;;;;;;;;;5073853;28;20012;-68
2021/07/17 06:10:28;;;;;;;7.70;4.38;;;;;;;;;;5055861;28;20373;-69
2021/07/17 06:12:54;;;;;;;10.85;5.07;;;;;;;;;;5073257;28;20047;-68
2021/07/17 06:15:20;;;;;;;8.13;4.55;;;;;;;;;;5073154;28;20017;-67
2021/07/17 06:17:46;;;;;;;8.98;4.30;;;;;;;;;;5055230;28;20039;-67
2021/07/17 06:20:12;;;;;;;7.05;4.15;;;;;;;;;;5073295;28;20020;-67
2021/07/17 06:22:38;;;;;;;7.32;4.78;;;;;;;;;;5073311;28;20020;-66
2021/07/17 06:25:05;;;;;;;13.68;5.40;;;;;;;;;;5072906;28;20029;-66
2021/07/17 06:27:31;;;;;;;8.70;4.88;;;;;;;;;;5073180;28;20059;-69
2021/07/17 06:29:57;;;;;;;8.48;4.80;;;;;;;;;;5073059;28;20020;-68
2021/07/17 06:32:24;;;;;;;8.35;4.63;;;;;;;;;;5072749;28;20074;-67
2021/07/17 06:34:50;;;;;;;9.65;5.30;;;;;;;;;;5054937;28;20031;-67
2021/07/17 06:37:16;;;;;;;9.35;4.75;;;;;;;;;;5055067;28;20029;-67
2021/07/17 06:39:42;;;;;;;10.70;5.20;;;;;;;;;;5072865;28;20523;-68
2021/07/17 06:42:08;;;;;;;10.65;5.25;;;;;;;;;;5073066;28;20032;-67
2021/07/17 06:44:34;;;;;;;9.40;4.97;;;;;;;;;;5072869;28;20017;-67
2021/07/17 06:47:00;;;;;;;10.60;5.05;;;;;;;;;;5072676;28;20181;-69
2021/07/17 06:49:26;;;;;;;7.80;4.68;;;;;;;;;;5072749;28;20107;-67
2021/07/17 06:51:52;;;;;;;8.27;4.68;;;;;;;;;;5072712;28;20029;-69
2021/07/17 06:54:19;;;;;;;8.20;5.05;;;;;;;;;;5072579;28;20048;-67
2021/07/17 06:56:45;;;;;;;8.43;5.05;;;;;;;;;;5072558;28;20617;-70
2021/07/17 06:59:11;;;;;;;11.07;5.32;;;;;;;;;;5054904;28;20366;-67
2021/07/17 07:01:37;;;;;;;11.88;5.45;;;;;;;;;;5072081;28;20039;-68
2021/07/17 07:04:03;;;;;;;11.32;5.28;;;;;;;;;;5072359;28;20024;-68
2021/07/17 07:06:29;;;;;;;12.57;5.63;;;;;;;;;;5072336;28;20032;-67
2021/07/17 07:08:55;;;;;;;10.52;6.13;;;;;;;;;;5053089;28;20025;-69
2021/07/17 07:11:21;;;;;;;11.93;5.20;;;;;;;;;;5071797;28;20029;-67
2021/07/17 07:13:47;;;;;;;11.18;5.70;;;;;;;;;;5071426;28;20052;-66
2021/07/17 07:16:14;;;;;;;10.90;5.55;;;;;;;;;;5071707;28;20021;-67
2021/07/17 07:18:40;;;;;;;8.98;5.53;;;;;;;;;;5053489;28;20021;-69
2021/07/17 07:21:06;;;;;;;11.38;6.15;;;;;;;;;;5071656;28;20020;-70
2021/07/17 07:23:33;;;;;;;8.65;5.38;;;;;;;;;;5071870;28;20020;-67
2021/07/17 07:25:59;;;;;;;10.77;6.20;;;;;;;;;;5071961;28;20044;-67
2021/07/17 07:28:25;;;;;;;12.43;6.50;;;;;;;;;;5072107;28;20543;-68
2021/07/17 07:30:51;;;;;;;12.27;6.63;;;;;;;;;;5071845;28;20638;-67
2021/07/17 07:33:17;;;;;;;10.55;5.60;;;;;;;;;;5071889;28;20025;-67
2021/07/17 07:35:43;;;;;;;12.38;6.00;;;;;;;;;;5053760;28;20013;-67
2021/07/17 07:38:09;;;;;;;11.75;6.00;;;;;;;;;;5071752;28;20063;-68
2021/07/17 07:40:35;;;;;;;9.65;6.32;;;;;;;;;;5071611;28;20438;-67
2021/07/17 07:43:01;;;;;;;11.75;6.75;;;;;;;;;;5071531;28;20081;-68
2021/07/17 07:45:27;;;;;;;13.20;7.45;;;;;;;;;;5071482;28;20055;-67
2021/07/17 07:47:53;;;;;;;11.15;7.22;;;;;;;;;;5071611;28;20099;-67
2021/07/17 07:50:21;;;;;;;10.07;6.88;;;;;;;;;;5071508;28;20032;-67
2021/07/17 07:52:47;;;;;;;13.02;7.00;;;;;;;;;;5070332;28;20060;-67
2021/07/17 07:55:13;;;;;;;11.20;6.82;;;;;;;;;;5053395;28;20052;-69
2021/07/17 07:57:39;;;;;;;10.07;6.47;;;;;;;;;;5053620;28;20028;-66
2021/07/17 08:00:07;;;;;;;11.85;6.75;;;;;;;;;;5071564;28;20017;-68
2021/07/17 08:02:33;;;;;;;12.07;7.13;;;;;;;;;;5071532;28;20048;-67
2021/07/17 08:04:59;;;;;;;11.52;6.93;;;;;;;;;;5071347;28;20021;-67
2021/07/17 08:07:25;;;;;;;13.88;6.68;;;;;;;;;;5071423;28;20103;-67
2021/07/17 08:09:51;;;;;;;12.82;6.95;;;;;;;;;;5053374;28;20021;-70
2021/07/17 08:12:17;;;;;;;12.57;7.30;;;;;;;;;;5071255;28;20029;-67
2021/07/17 08:14:43;;;;;;;15.32;7.63;;;;;;;;;;5071034;28;20170;-69
2021/07/17 08:17:10;;;;;;;15.68;7.75;;;;;;;;;;5071480;28;20048;-67
2021/07/17 08:19:36;;;;;;;13.52;7.63;;;;;;;;;;5071099;28;20027;-69
2021/07/17 08:22:02;;;;;;;14.10;7.50;;;;;;;;;;5071147;28;20497;-67
2021/07/17 08:24:28;;;;;;;12.48;7.88;;;;;;;;;;5070996;28;20032;-67
2021/07/17 08:26:54;;;;;;;13.88;7.78;;;;;;;;;;5071081;28;20397;-68
2021/07/17 08:29:20;;;;;;;16.77;8.52;;;;;;;;;;5053216;28;20028;-68
2021/07/17 08:31:46;;;;;;;10.50;7.70;;;;;;;;;;5052988;28;20036;-68
2021/07/17 08:34:12;;;;;;;16.73;8.73;;;;;;;;;;5053013;28;20032;-67
2021/07/17 08:36:38;;;;;;;15.32;8.65;;;;;;;;;;5071187;28;20078;-67
2021/07/17 08:39:04;;;;;;;12.50;8.13;;;;;;;;;;5071205;28;20020;-70
2021/07/17 08:41:34;;;;;;;19.48;9.40;;;;;;;;;;5052886;28;20047;-66
2021/07/17 08:44:00;;;;;;;13.50;9.32;;;;;;;;;;5052865;28;20587;-67
2021/07/17 08:46:27;;;;;;;15.30;9.32;;;;;;;;;;5071027;28;20103;-67
2021/07/17 08:48:54;;;;;;;21.55;10.98;;;;;;;;;;5071207;28;20086;-70
2021/07/17 08:51:20;;;;;;;19.65;10.77;;;;;;;;;;5069784;28;20070;-69
2021/07/17 08:53:47;;;;;;;18.88;11.25;;;;;;;;;;5069373;28;20100;-67
2021/07/17 08:56:13;;;;;;;18.83;11.18;;;;;;;;;;5070789;28;20052;-67
2021/07/17 08:58:39;;;;;;;17.10;10.00;;;;;;;;;;5070777;28;20358;-67
2021/07/17 09:01:05;;;;;;;24.48;11.75;;;;;;;;;;5070535;28;20025;-67
2021/07/17 09:03:32;;;;;;;19.42;10.82;;;;;;;;;;5071465;28;20473;-68
2021/07/17 09:05:58;;;;;;;15.65;11.13;;;;;;;;;;5071477;28;20111;-67
2021/07/17 09:08:24;;;;;;;16.90;10.45;;;;;;;;;;5071668;28;20104;-67
2021/07/17 09:10:51;;;;;;;16.48;11.90;;;;;;;;;;5053666;28;20025;-66
2021/07/17 09:13:20;;;;;;;25.80;11.52;;;;;;;;;;5071280;28;20048;-67
2021/07/17 09:15:49;;;;;;;17.17;11.68;;;;;;;;;;5071574;28;20024;-67
2021/07/17 09:18:16;;;;;;;17.35;11.80;;;;;;;;;;5071410;28;20021;-66
2021/07/17 09:20:54;;;;;;;19.95;11.30;;;;;;;;;;5071627;28;20334;-67
2021/07/17 09:23:23;;;;;;;18.80;11.68;;;;;;;;;;5071213;28;20118;-66
2021/07/17 09:25:49;;;;;;;19.88;12.07;;;;;;;;;;5053463;28;20044;-67
2021/07/17 09:28:20;;;;;;;18.75;11.50;;;;;;;;;;5071237;28;20120;-66
2021/07/17 09:30:46;;;;;;;18.25;11.93;;;;;;;;;;5071306;28;20031;-67
2021/07/17 09:33:13;;;;;;;21.13;11.88;;;;;;;;;;5074488;28;20027;-67
2021/07/17 09:35:40;;;;;;;18.85;12.82;;;;;;;;;;5074761;28;20086;-67
2021/07/17 09:38:07;;;;;;;18.58;12.18;;;;;;;;;;5074801;28;20059;-67
2021/07/17 09:40:47;;;;;;;20.98;12.68;;;;;;;;;;5074967;28;20048;-69
2021/07/17 09:43:25;;;;;;;20.45;12.43;;;;;;;;;;5074793;28;20381;-66
2021/07/17 09:45:52;;;;;;;19.25;12.70;;;;;;;;;;5074664;28;20060;-66
2021/07/17 09:48:21;;;;;;;22.23;12.45;;;;;;;;;;5074557;28;20099;-67
2021/07/17 09:50:48;;;;;;;21.15;12.55;;;;;;;;;;5056532;28;20108;-67
2021/07/17 09:53:34;;;;;;;19.90;13.82;;;;;;;;;;5074590;28;20025;-67
2021/07/17 09:56:11;;;;;;;18.83;12.68;;;;;;;;;;5074596;28;20492;-66
2021/07/17 09:58:38;;;;;;;18.02;13.23;;;;;;;;;;5074645;28;20027;-68
2021/07/17 10:01:18;;;;;;;19.45;13.35;;;;;;;;;;5074532;28;20104;-68
2021/07/17 10:03:45;;;;;;;17.58;13.02;;;;;;;;;;5072940;28;20056;-70
2021/07/17 10:06:24;;;;;;;18.63;12.85;;;;;;;;;;5074023;28;20056;-68
2021/07/17 10:08:50;;;;;;;19.42;12.52;;;;;;;;;;5074361;28;20063;-67
2021/07/17 10:11:22;;;;;;;21.25;11.25;;;;;;;;;;5074244;28;20021;-67
2021/07/17 10:13:48;;;;;;;21.07;12.40;;;;;;;;;;5074123;28;20052;-68
2021/07/17 10:16:18;;;;;;;24.52;12.73;;;;;;;;;;5074317;28;20024;-68
2021/07/17 10:18:46;;;;;;;20.27;12.45;;;;;;;;;;5074057;28;20024;-70
2021/07/17 10:21:13;;;;;;;20.92;12.10;;;;;;;;;;5074177;28;20029;-67
2021/07/17 10:23:39;;;;;;;17.77;12.23;;;;;;;;;;5073846;28;20008;-70
2021/07/17 10:26:06;;;;;;;19.30;12.60;;;;;;;;;;5073730;28;20032;-68
2021/07/17 10:28:32;;;;;;;20.55;12.70;;;;;;;;;;5073790;28;20041;-67
2021/07/17 10:30:59;;;;;;;21.17;14.13;;;;;;;;;;5073799;28;20035;-67
2021/07/17 10:33:25;;;;;;;23.02;13.95;;;;;;;;;;5073983;28;20017;-68
2021/07/17 10:35:53;;;;;;;21.90;13.90;;;;;;;;;;5055757;28;20031;-68
2021/07/17 10:38:20;;;;;;;17.67;12.63;;;;;;;;;;5073614;28;20095;-67
2021/07/17 10:40:46;;;;;;;21.52;12.82;;;;;;;;;;5073836;28;20031;-67
2021/07/17 10:43:13;;;;;;;20.65;12.10;;;;;;;;;;5054170;28;20028;-67
2021/07/17 10:45:45;;;;;;;21.17;13.30;;;;;;;;;;5073379;28;20032;-69
2021/07/17 10:48:28;;;;;;;17.27;11.63;;;;;;;;;;5073677;28;20024;-70
2021/07/17 10:50:55;;;;;;;20.52;12.48;;;;;;;;;;5073415;28;20679;-67
2021/07/17 10:53:39;;;;;;;16.23;11.00;;;;;;;;;;5072476;28;20030;-68
2021/07/17 10:56:24;;;;;;;15.25;10.98;;;;;;;;;;5073514;28;20036;-71
2021/07/17 10:58:50;;;;;;;18.13;11.80;;;;;;;;;;5055295;28;20020;-69
2021/07/17 11:01:16;;;;;;;13.90;10.73;;;;;;;;;;5073178;28;20028;-69
2021/07/17 11:03:42;;;;;;;15.23;9.57;;;;;;;;;;5055326;28;20016;-70
2021/07/17 11:06:43;;;;;;;16.17;10.32;;;;;;;;;;5055204;28;20048;-67
2021/07/17 11:09:36;;;;;;;14.70;10.38;;;;;;;;;;5030267;28;20032;-67
2021/07/17 11:12:18;;;;;;;19.10;11.15;;;;;;;;;;5051390;28;20370;-67
2021/07/17 11:14:44;;;;;;;16.60;9.98;;;;;;;;;;5072912;28;20155;-69
2021/07/17 11:17:10;;;;;;;13.52;9.15;;;;;;;;;;5072830;28;20031;-67
2021/07/17 11:19:36;;;;;;;14.43;9.52;;;;;;;;;;5073100;28;20124;-67
2021/07/17 11:22:10;;;;;;;15.07;9.63;;;;;;;;;;5069585;28;20474;-70
2021/07/17 11:24:36;;;;;;;20.85;11.38;;;;;;;;;;5070895;28;20025;-70
2021/07/17 11:27:12;;;;;;;19.75;10.43;;;;;;;;;;5072482;28;20041;-69
2021/07/17 11:29:39;;;;;;;16.98;10.30;;;;;;;;;;5072202;28;20100;-70
2021/07/17 11:32:09;;;;;;;17.67;9.70;;;;;;;;;;5072163;28;20380;-69
2021/07/17 11:34:40;;;;;;;12.15;9.15;;;;;;;;;;5072710;28;20070;-70
2021/07/17 11:37:08;;;;;;;14.52;9.20;;;;;;;;;;5072441;28;20062;-68
2021/07/17 11:39:35;;;;;;;12.65;9.20;;;;;;;;;;5072068;28;20090;-70
2021/07/17 11:42:03;;;;;;;12.82;9.65;;;;;;;;;;5071237;28;20960;-70
2021/07/17 11:44:40;;;;;;;15.77;9.60;;;;;;;;;;5072562;28;20082;-67
2021/07/17 11:47:10;;;;;;;14.57;9.80;;;;;;;;;;5072296;28;20118;-71
2021/07/17 11:49:38;;;;;;;15.95;10.23;;;;;;;;;;5072368;28;20025;-70
2021/07/17 11:52:05;;;;;;;16.65;10.18;;;;;;;;;;5072365;28;20104;-69
2021/07/17 11:54:33;;;;;;;19.25;11.50;;;;;;;;;;5071955;28;20027;-70
2021/07/17 11:57:07;;;;;;;14.98;9.98;;;;;;;;;;5072175;28;20099;-70
2021/07/17 11:59:34;;;;;;;16.55;10.30;;;;;;;;;;5054043;28;20078;-69
2021/07/17 12:02:10;;;;;;;14.07;10.25;;;;;;;;;;5072107;28;20028;-69
2021/07/17 12:04:40;;;;;;;15.65;10.88;;;;;;;;;;5072165;28;20025;-69
2021/07/17 12:07:08;;;;;;;12.63;10.57;;;;;;;;;;5071815;28;20037;-70
2021/07/17 12:09:38;;;;;;;14.65;10.63;;;;;;;;;;5071823;28;20012;-71
2021/07/17 12:12:14;;;;;;;15.95;10.32;;;;;;;;;;5071902;28;20456;-69
2021/07/17 12:14:40;;;;;;;15.25;9.82;;;;;;;;;;5072016;28;20040;-68
2021/07/17 12:17:06;;;;;;;14.20;9.85;;;;;;;;;;5066086;28;20017;-71
2021/07/17 12:19:33;;;;;;;15.05;9.82;;;;;;;;;;5052006;28;20017;-69
2021/07/17 12:21:59;;;;;;;16.92;11.15;;;;;;;;;;5069670;28;20480;-68
2021/07/17 12:24:25;;;;;;;21.38;11.07;;;;;;;;;;5070733;28;20028;-68
2021/07/17 12:27:00;;;;;;;19.25;9.70;;;;;;;;;;5070552;28;20511;-67
2021/07/17 12:29:26;;;;;;;17.35;11.20;;;;;;;;;;5071099;28;20108;-70
2021/07/17 12:31:59;;;;;;;17.55;11.18;;;;;;;;;;5071248;28;20405;-67
2021/07/17 12:34:25;;;;;;;17.55;10.55;;;;;;;;;;5057061;28;20031;-68
2021/07/17 12:36:51;;;;;;;23.15;10.40;;;;;;;;;;5070551;28;20027;-68
2021/07/17 12:39:21;;;;;;;15.60;10.95;;;;;;;;;;5070126;28;20100;-67
2021/07/17 12:41:49;;;;;;;20.80;13.35;;;;;;;;;;5069790;28;20032;-67
2021/07/17 12:44:16;;;;;;;17.52;11.82;;;;;;;;;;5071650;28;20020;-68
2021/07/17 12:46:48;;;;;;;19.25;11.15;;;;;;;;;;5071521;28;20040;-67
2021/07/17 12:49:14;;;;;;;;;;;;;;;;;;5071853;28;20114;-67
2021/07/17 12:51:40;;;;;;;19.67;12.05;;;;;;;;;;5071388;28;20357;-68
2021/07/17 12:54:10;;;;;;;20.20;11.95;;;;;;;;;;5071631;28;20454;-67
2021/07/17 12:56:47;;;;;;;18.67;11.75;;;;;;;;;;5071642;28;20029;-67
2021/07/17 12:59:15;;;;;;;18.58;11.98;;;;;;;;;;5071679;28;20029;-67
2021/07/17 13:01:48;;;;;;;15.15;10.18;;;;;;;;;;5071132;28;20056;-70
2021/07/17 13:04:15;;;;;;;15.52;11.80;;;;;;;;;;5071637;28;20025;-67
2021/07/17 13:06:42;;;;;;;23.30;12.90;;;;;;;;;;5072514;28;20037;-68
2021/07/17 13:09:09;;;;;;;18.10;11.52;;;;;;;;;;5075582;28;20064;-67
2021/07/17 13:11:35;;;;;;;18.80;10.88;;;;;;;;;;5057572;28;20047;-67
2021/07/17 13:14:02;;;;;;;16.52;11.32;;;;;;;;;;5075316;28;20136;-67
2021/07/17 13:16:29;;;;;;;19.27;10.38;;;;;;;;;;5075308;28;20081;-67
2021/07/17 13:18:56;;;;;;;13.95;11.20;;;;;;;;;;5075386;28;20066;-67
2021/07/17 13:21:32;;;;;;;18.25;11.32;;;;;;;;;;5075414;28;20027;-67
2021/07/17 13:23:59;;;;;;;18.23;11.68;;;;;;;;;;5075125;28;20029;-68
2021/07/17 13:26:27;;;;;;;17.17;12.00;;;;;;;;;;5057150;28;20033;-67
2021/07/17 13:28:57;;;;;;;18.10;11.63;;;;;;;;;;5074874;28;20028;-67
2021/07/17 13:31:24;;;;;;;21.15;12.35;;;;;;;;;;5056877;28;20496;-67
2021/07/17 13:34:07;;;;;;;25.52;12.07;;;;;;;;;;5074781;28;20023;-68
2021/07/17 13:36:33;;;;;;;;;;;;;;;;;;5075358;28;20096;-68
2021/07/17 13:39:00;;;;;;;21.98;11.95;;;;;;;;;;5075264;28;19940;-68
2021/07/17 13:41:26;;;;;;;21.80;11.75;;;;;;;;;;5074774;28;20032;-68
2021/07/17 13:43:52;;;;;;;15.93;11.60;;;;;;;;;;5074805;28;20028;-68
2021/07/17 13:46:22;;;;;;;21.20;10.70;;;;;;;;;;5074915;28;20492;-71
2021/07/17 13:48:48;;;;;;;15.75;10.55;;;;;;;;;;5074653;28;20111;-70
2021/07/17 13:51:15;;;;;;;15.93;9.38;;;;;;;;;;5074615;28;20493;-68
2021/07/17 13:53:41;;;;;;;14.70;9.82;;;;;;;;;;5074771;28;20021;-68
2021/07/17 13:56:11;;;;;;;17.05;9.45;;;;;;;;;;5074635;28;20095;-68
2021/07/17 13:58:38;;;;;;;12.50;9.32;;;;;;;;;;5074632;28;20074;-68
2021/07/17 14:01:08;;;;;;;14.93;8.90;;;;;;;;;;5074491;28;20048;-68
2021/07/17 14:03:36;;;;;;;15.48;9.90;;;;;;;;;;5074291;28;20109;-69
2021/07/17 14:06:03;;;;;;;12.45;9.20;;;;;;;;;;5074079;28;20032;-68
2021/07/17 14:08:30;;;;;;;11.75;9.70;;;;;;;;;;5056461;28;20113;-68
2021/07/17 14:10:57;;;;;;;16.65;9.75;;;;;;;;;;5056523;28;20028;-68
2021/07/17 14:13:24;;;;;;;11.77;9.32;;;;;;;;;;5074111;28;20040;-71
2021/07/17 14:15:50;;;;;;;13.27;9.85;;;;;;;;;;5074339;28;20032;-68
2021/07/17 14:18:16;;;;;;;16.98;10.15;;;;;;;;;;5055769;28;20023;-71
2021/07/17 14:20:42;;;;;;;13.77;10.85;;;;;;;;;;5073986;28;20503;-68
2021/07/17 14:23:11;;;;;;;12.35;9.70;;;;;;;;;;5074084;28;20043;-68
2021/07/17 14:25:38;;;;;;;17.92;10.00;;;;;;;;;;5055956;28;20373;-68
2021/07/17 14:28:05;;;;;;;16.98;10.77;;;;;;;;;;5074107;28;20028;-67
2021/07/17 14:30:31;;;;;;;14.23;9.98;;;;;;;;;;5074056;28;20027;-68